Time;durP1;ratioP1;P1;durP2;ratioP2;P2;SDS_P1;SDS_P2;PMS_P1;PMS_P2;Temp;Humidity;BMP_temperature;BMP_pressure;BME280_temperature;BME280_humidity;BME280_pressure;Samples;Min_cycle;Max_cycle;Signal;HPM_P1;HPM_P2
2021/10/14 00:01:20;;;;;;;6.43;3.65;;;;;;;;;;6152269;23;20013;-57
2021/10/14 00:03:45;;;;;;;5.88;3.28;;;;;;;;;;6122771;23;20502;-57
2021/10/14 00:06:11;;;;;;;6.53;3.58;;;;;;;;;;6152018;23;20048;-58
2021/10/14 00:08:36;;;;;;;5.78;3.22;;;;;;;;;;6150900;23;20022;-58
2021/10/14 00:11:02;;;;;;;6.53;3.20;;;;;;;;;;6152014;23;20002;-60
2021/10/14 00:13:28;;;;;;;5.35;3.65;;;;;;;;;;6150594;23;20009;-61
2021/10/14 00:15:53;;;;;;;5.82;3.28;;;;;;;;;;6150982;23;20332;-59
2021/10/14 00:18:19;;;;;;;4.43;3.10;;;;;;;;;;6151657;23;20033;-61
2021/10/14 00:20:44;;;;;;;5.25;3.20;;;;;;;;;;6151622;23;20088;-60
2021/10/14 00:23:10;;;;;;;5.60;3.10;;;;;;;;;;6151649;23;20006;-60
2021/10/14 00:25:35;;;;;;;4.60;3.15;;;;;;;;;;6152476;23;20009;-60
2021/10/14 00:28:00;;;;;;;4.72;3.30;;;;;;;;;;6149953;23;19998;-62
2021/10/14 00:30:26;;;;;;;4.75;3.10;;;;;;;;;;6152407;23;20088;-61
2021/10/14 00:32:52;;;;;;;4.65;3.58;;;;;;;;;;6126573;23;20005;-59
2021/10/14 00:35:17;;;;;;;7.15;3.67;;;;;;;;;;6150269;23;20013;-60
2021/10/14 00:37:42;;;;;;;6.60;3.42;;;;;;;;;;6150139;23;20005;-60
2021/10/14 00:40:08;;;;;;;5.30;3.45;;;;;;;;;;6151142;23;20002;-59
2021/10/14 00:42:34;;;;;;;5.78;3.92;;;;;;;;;;6152251;23;20002;-60
2021/10/14 00:45:00;;;;;;;5.80;3.55;;;;;;;;;;6151147;23;20012;-60
2021/10/14 00:47:27;;;;;;;5.10;3.78;;;;;;;;;;6151548;23;20404;-60
2021/10/14 00:49:53;;;;;;;5.90;4.20;;;;;;;;;;6150279;23;20072;-61
2021/10/14 00:52:20;;;;;;;5.85;3.92;;;;;;;;;;6149797;23;20080;-61
2021/10/14 00:54:47;;;;;;;5.30;3.63;;;;;;;;;;6150228;23;20001;-60
2021/10/14 00:57:13;;;;;;;4.53;3.80;;;;;;;;;;6125765;23;20126;-60
2021/10/14 00:59:40;;;;;;;6.10;4.00;;;;;;;;;;6150993;23;20564;-59
2021/10/14 01:02:06;;;;;;;6.28;4.20;;;;;;;;;;6152337;23;20416;-60
2021/10/14 01:04:31;;;;;;;4.30;3.53;;;;;;;;;;6151171;23;20005;-60
2021/10/14 01:06:57;;;;;;;7.30;3.70;;;;;;;;;;6152194;23;20012;-59
2021/10/14 01:09:23;;;;;;;5.70;3.80;;;;;;;;;;6147511;23;20005;-60
2021/10/14 01:11:48;;;;;;;7.05;3.85;;;;;;;;;;6151461;23;20028;-61
2021/10/14 01:14:14;;;;;;;6.10;4.30;;;;;;;;;;6150209;23;20012;-60
2021/10/14 01:16:47;;;;;;;6.25;4.30;;;;;;;;;;6125487;23;20100;-61
2021/10/14 01:19:14;;;;;;;6.35;3.88;;;;;;;;;;6150769;23;20029;-60
2021/10/14 01:21:40;;;;;;;7.07;3.88;;;;;;;;;;6152113;23;20420;-60
2021/10/14 01:24:07;;;;;;;5.22;3.63;;;;;;;;;;6150096;23;20010;-60
2021/10/14 01:26:32;;;;;;;6.18;3.80;;;;;;;;;;6126211;23;20281;-60
2021/10/14 01:28:58;;;;;;;7.68;3.88;;;;;;;;;;6150245;23;20008;-58
2021/10/14 01:31:25;;;;;;;5.60;4.20;;;;;;;;;;6152231;23;20002;-58
2021/10/14 01:33:50;;;;;;;6.68;3.97;;;;;;;;;;6151099;23;20005;-58
2021/10/14 01:36:16;;;;;;;7.70;4.13;;;;;;;;;;6152383;23;20033;-58
2021/10/14 01:38:42;;;;;;;7.05;4.13;;;;;;;;;;6151131;23;20001;-57
2021/10/14 01:41:07;;;;;;;6.90;4.00;;;;;;;;;;6148214;23;20739;-57
2021/10/14 01:43:33;;;;;;;7.35;4.30;;;;;;;;;;6151593;23;20009;-57
2021/10/14 01:45:59;;;;;;;6.68;4.35;;;;;;;;;;6150870;23;20080;-57
2021/10/14 01:48:24;;;;;;;6.32;4.03;;;;;;;;;;6152042;23;20005;-58
2021/10/14 01:50:50;;;;;;;5.10;4.05;;;;;;;;;;6152478;23;20550;-57
2021/10/14 01:53:15;;;;;;;7.30;4.22;;;;;;;;;;6149712;23;20424;-58
2021/10/14 01:55:40;;;;;;;6.55;4.22;;;;;;;;;;6151150;23;20056;-57
2021/10/14 01:58:06;;;;;;;6.55;4.40;;;;;;;;;;6149793;23;20013;-57
2021/10/14 02:00:32;;;;;;;5.78;3.92;;;;;;;;;;6142332;23;20041;-58
2021/10/14 02:02:58;;;;;;;9.80;4.25;;;;;;;;;;6143478;23;20020;-57
2021/10/14 02:05:23;;;;;;;7.22;4.70;;;;;;;;;;6147498;23;20104;-61
2021/10/14 02:07:48;;;;;;;8.07;4.15;;;;;;;;;;6147479;23;20005;-60
2021/10/14 02:10:14;;;;;;;8.18;4.30;;;;;;;;;;6121083;23;20475;-60
2021/10/14 02:12:39;;;;;;;6.82;4.30;;;;;;;;;;6143908;23;20009;-59
2021/10/14 02:15:05;;;;;;;7.93;4.45;;;;;;;;;;6148137;23;20454;-58
2021/10/14 02:17:30;;;;;;;7.13;4.22;;;;;;;;;;6147282;23;20479;-58
2021/10/14 02:19:55;;;;;;;7.00;4.03;;;;;;;;;;6147725;23;20005;-58
2021/10/14 02:22:21;;;;;;;7.35;4.28;;;;;;;;;;6148348;23;20009;-60
2021/10/14 02:24:46;;;;;;;8.50;4.60;;;;;;;;;;6147345;23;20009;-60
2021/10/14 02:27:11;;;;;;;9.90;4.72;;;;;;;;;;6149139;23;20036;-60
2021/10/14 02:29:37;;;;;;;7.40;4.40;;;;;;;;;;6148292;23;20427;-59
2021/10/14 02:32:02;;;;;;;5.28;4.15;;;;;;;;;;6147975;23;20013;-61
2021/10/14 02:34:28;;;;;;;6.78;4.30;;;;;;;;;;6122811;23;20036;-60
2021/10/14 02:36:53;;;;;;;6.97;4.70;;;;;;;;;;6148001;23;20009;-61
2021/10/14 02:39:18;;;;;;;7.03;4.75;;;;;;;;;;6148090;23;20076;-59
2021/10/14 02:41:44;;;;;;;8.10;4.55;;;;;;;;;;6148399;23;20428;-60
2021/10/14 02:44:09;;;;;;;6.30;4.68;;;;;;;;;;6148162;23;20036;-61
2021/10/14 02:46:34;;;;;;;7.40;4.60;;;;;;;;;;6145525;23;20006;-59
2021/10/14 02:49:00;;;;;;;5.50;4.50;;;;;;;;;;6147510;23;20006;-60
2021/10/14 02:51:25;;;;;;;7.47;5.47;;;;;;;;;;6149370;23;20005;-60
2021/10/14 02:53:50;;;;;;;7.72;4.57;;;;;;;;;;6147632;23;20517;-59
2021/10/14 02:56:16;;;;;;;9.70;4.97;;;;;;;;;;6147044;23;20449;-60
2021/10/14 02:58:41;;;;;;;6.45;5.15;;;;;;;;;;6147709;23;20144;-60
2021/10/14 03:01:06;;;;;;;7.80;4.70;;;;;;;;;;6146532;23;20229;-60
2021/10/14 03:03:33;;;;;;;6.93;4.80;;;;;;;;;;6147240;23;20005;-61
2021/10/14 03:05:58;;;;;;;5.68;4.60;;;;;;;;;;6123201;23;20715;-60
2021/10/14 03:08:24;;;;;;;7.57;4.90;;;;;;;;;;6147414;23;20001;-60
2021/10/14 03:10:49;;;;;;;11.32;5.53;;;;;;;;;;6148007;23;20006;-59
2021/10/14 03:13:15;;;;;;;7.55;5.20;;;;;;;;;;6145243;23;20067;-60
2021/10/14 03:15:40;;;;;;;7.20;5.10;;;;;;;;;;6146586;23;20036;-59
2021/10/14 03:18:05;;;;;;;11.75;5.30;;;;;;;;;;6118250;23;20454;-61
2021/10/14 03:20:31;;;;;;;10.13;4.80;;;;;;;;;;6146816;23;20006;-61
2021/10/14 03:22:56;;;;;;;7.70;4.90;;;;;;;;;;6120073;23;20006;-60
2021/10/14 03:25:22;;;;;;;9.27;5.28;;;;;;;;;;6145839;23;20117;-60
2021/10/14 03:27:47;;;;;;;7.65;5.45;;;;;;;;;;6120203;23;20432;-60
2021/10/14 03:30:12;;;;;;;7.43;5.43;;;;;;;;;;6146174;23;20012;-61
2021/10/14 03:32:38;;;;;;;9.18;5.28;;;;;;;;;;6146822;23;20177;-61
2021/10/14 03:35:04;;;;;;;8.73;5.45;;;;;;;;;;6148227;23;20420;-61
2021/10/14 03:37:29;;;;;;;7.40;5.63;;;;;;;;;;6147006;23;20010;-61
2021/10/14 03:39:54;;;;;;;7.78;5.80;;;;;;;;;;6146979;23;20328;-61
2021/10/14 03:42:21;;;;;;;8.48;5.68;;;;;;;;;;6148013;23;20005;-60
2021/10/14 03:44:46;;;;;;;7.93;5.97;;;;;;;;;;6148617;23;20008;-60
2021/10/14 03:47:12;;;;;;;10.35;6.32;;;;;;;;;;6148301;23;20005;-59
2021/10/14 03:49:37;;;;;;;8.48;6.43;;;;;;;;;;6143130;23;20009;-61
2021/10/14 03:52:03;;;;;;;11.68;6.35;;;;;;;;;;6148306;23;20009;-61
2021/10/14 03:54:28;;;;;;;8.43;6.22;;;;;;;;;;6147439;23;20097;-60
2021/10/14 03:56:54;;;;;;;10.32;6.30;;;;;;;;;;6147354;23;20009;-60
2021/10/14 03:59:19;;;;;;;11.13;6.97;;;;;;;;;;6146114;23;20691;-60
2021/10/14 04:01:44;;;;;;;8.70;6.50;;;;;;;;;;6145462;23;20635;-60
2021/10/14 04:04:10;;;;;;;12.35;7.57;;;;;;;;;;6148084;23;20006;-60
2021/10/14 04:06:35;;;;;;;11.18;7.30;;;;;;;;;;6148686;23;20009;-61
2021/10/14 04:09:00;;;;;;;10.10;7.10;;;;;;;;;;6146471;23;20451;-61
2021/10/14 04:11:25;;;;;;;10.50;7.32;;;;;;;;;;6147983;23;20416;-61
2021/10/14 04:13:51;;;;;;;9.65;7.25;;;;;;;;;;6145547;23;20016;-60
2021/10/14 04:16:16;;;;;;;9.43;7.28;;;;;;;;;;6146689;23;20481;-57
2021/10/14 04:18:41;;;;;;;10.85;7.47;;;;;;;;;;6147411;23;20005;-58
2021/10/14 04:21:07;;;;;;;12.02;7.03;;;;;;;;;;6147294;23;20332;-58
2021/10/14 04:23:32;;;;;;;12.02;7.28;;;;;;;;;;6142408;23;20009;-57
2021/10/14 04:25:58;;;;;;;9.88;7.10;;;;;;;;;;6146859;23;20009;-58
2021/10/14 04:28:23;;;;;;;11.55;7.75;;;;;;;;;;6147165;23;20009;-57
2021/10/14 04:30:50;;;;;;;12.02;7.93;;;;;;;;;;6147993;23;20040;-57
2021/10/14 04:33:15;;;;;;;13.95;8.05;;;;;;;;;;6145905;23;20065;-58
2021/10/14 04:35:41;;;;;;;11.13;6.82;;;;;;;;;;6146430;23;20018;-59
2021/10/14 04:38:07;;;;;;;11.60;7.70;;;;;;;;;;6145857;23;20037;-58
2021/10/14 04:40:32;;;;;;;9.20;6.57;;;;;;;;;;6146552;23;20088;-58
2021/10/14 04:42:59;;;;;;;10.75;7.22;;;;;;;;;;6146292;23;20005;-60
2021/10/14 04:45:24;;;;;;;10.93;7.78;;;;;;;;;;6147050;23;20013;-60
2021/10/14 04:47:50;;;;;;;15.32;9.88;;;;;;;;;;6147048;23;20009;-60
2021/10/14 04:50:15;;;;;;;12.38;8.45;;;;;;;;;;6147087;23;20009;-60
2021/10/14 04:52:41;;;;;;;12.27;8.40;;;;;;;;;;6146450;23;20010;-61
2021/10/14 04:55:07;;;;;;;14.73;8.98;;;;;;;;;;6144964;23;20444;-59
2021/10/14 04:57:33;;;;;;;9.82;8.18;;;;;;;;;;6121074;23;20017;-59
2021/10/14 04:59:59;;;;;;;12.48;8.27;;;;;;;;;;6145110;23;20013;-60
2021/10/14 05:02:24;;;;;;;13.30;7.88;;;;;;;;;;6146490;23;20016;-60
2021/10/14 05:04:50;;;;;;;11.13;7.70;;;;;;;;;;6147301;23;20134;-59
2021/10/14 05:07:15;;;;;;;12.32;8.48;;;;;;;;;;6147634;23;20010;-61
2021/10/14 05:09:41;;;;;;;11.45;8.30;;;;;;;;;;6120382;23;20446;-61
2021/10/14 05:12:06;;;;;;;12.40;8.63;;;;;;;;;;6147550;23;20009;-60
2021/10/14 05:14:31;;;;;;;15.10;8.95;;;;;;;;;;6146283;23;20006;-60
2021/10/14 05:16:57;;;;;;;10.45;8.27;;;;;;;;;;6147076;23;20013;-59
2021/10/14 05:19:22;;;;;;;13.52;8.98;;;;;;;;;;6147152;23;20009;-60
2021/10/14 05:21:47;;;;;;;11.43;8.18;;;;;;;;;;6147327;23;20013;-57
2021/10/14 05:24:13;;;;;;;14.25;9.10;;;;;;;;;;6145644;23;20006;-58
2021/10/14 05:26:39;;;;;;;14.40;9.38;;;;;;;;;;6117563;23;19997;-59
2021/10/14 05:29:04;;;;;;;13.95;8.82;;;;;;;;;;6147632;23;20009;-57
2021/10/14 05:31:29;;;;;;;13.63;9.18;;;;;;;;;;6146883;23;20707;-58
2021/10/14 05:33:55;;;;;;;11.45;8.13;;;;;;;;;;6147255;23;20001;-58
2021/10/14 05:36:21;;;;;;;14.30;8.80;;;;;;;;;;6120000;23;20001;-58
2021/10/14 05:38:47;;;;;;;13.95;8.90;;;;;;;;;;6119780;23;20025;-58
2021/10/14 05:41:12;;;;;;;16.02;9.60;;;;;;;;;;6148840;23;20048;-58
2021/10/14 05:43:38;;;;;;;15.55;8.77;;;;;;;;;;6123861;23;20009;-58
2021/10/14 05:46:03;;;;;;;13.10;8.50;;;;;;;;;;6149663;23;20016;-57
2021/10/14 05:48:29;;;;;;;13.45;9.00;;;;;;;;;;6148855;23;20410;-58
2021/10/14 05:50:54;;;;;;;14.68;9.60;;;;;;;;;;6123748;23;20016;-57
2021/10/14 05:53:20;;;;;;;25.60;13.80;;;;;;;;;;6147735;23;20427;-57
2021/10/14 05:55:45;;;;;;;19.40;9.98;;;;;;;;;;6148944;23;20005;-58
2021/10/14 05:58:11;;;;;;;42.03;22.83;;;;;;;;;;6149637;23;20009;-58
2021/10/14 06:00:36;;;;;;;32.78;18.58;;;;;;;;;;6145135;23;20020;-57
2021/10/14 06:03:02;;;;;;;17.05;10.75;;;;;;;;;;6148456;23;20012;-57
2021/10/14 06:05:27;;;;;;;18.90;11.55;;;;;;;;;;6148293;23;20363;-58
2021/10/14 06:07:52;;;;;;;15.75;11.32;;;;;;;;;;6146359;23;20067;-58
2021/10/14 06:10:18;;;;;;;20.38;13.80;;;;;;;;;;6122915;23;20503;-58
2021/10/14 06:12:43;;;;;;;20.42;12.52;;;;;;;;;;6120104;23;20428;-57
2021/10/14 06:15:09;;;;;;;20.95;11.73;;;;;;;;;;6148168;23;20005;-57
2021/10/14 06:17:35;;;;;;;18.75;12.25;;;;;;;;;;6148454;23;20013;-59
2021/10/14 06:20:01;;;;;;;15.65;10.82;;;;;;;;;;6147289;23;20060;-58
2021/10/14 06:22:26;;;;;;;15.48;10.10;;;;;;;;;;6148908;23;20005;-58
2021/10/14 06:24:52;;;;;;;16.75;12.32;;;;;;;;;;6148260;23;20005;-57
2021/10/14 06:27:18;;;;;;;33.53;19.23;;;;;;;;;;6146196;23;20009;-57
2021/10/14 06:29:43;;;;;;;15.65;13.27;;;;;;;;;;6148172;23;20060;-57
2021/10/14 06:32:08;;;;;;;13.27;10.20;;;;;;;;;;6144157;23;20006;-58
2021/10/14 06:34:34;;;;;;;13.98;9.63;;;;;;;;;;6148280;23;20005;-57
2021/10/14 06:36:59;;;;;;;12.63;8.77;;;;;;;;;;6147553;23;20001;-57
2021/10/14 06:39:25;;;;;;;13.57;9.98;;;;;;;;;;6146829;23;20006;-57
2021/10/14 06:41:50;;;;;;;14.23;9.80;;;;;;;;;;6148925;23;20014;-57
2021/10/14 06:44:15;;;;;;;13.35;9.25;;;;;;;;;;6148550;23;20371;-57
2021/10/14 06:46:41;;;;;;;14.68;9.38;;;;;;;;;;6148239;23;20483;-57
2021/10/14 06:49:06;;;;;;;14.48;9.25;;;;;;;;;;6147730;23;20033;-57
2021/10/14 06:51:32;;;;;;;13.02;9.60;;;;;;;;;;6148770;23;20080;-57
2021/10/14 06:53:58;;;;;;;11.45;8.65;;;;;;;;;;6148458;23;20010;-57
2021/10/14 06:56:23;;;;;;;15.43;11.02;;;;;;;;;;6146550;23;20285;-56
2021/10/14 06:58:50;;;;;;;14.60;9.95;;;;;;;;;;6145659;23;20005;-57
2021/10/14 07:01:15;;;;;;;15.27;10.18;;;;;;;;;;6144760;23;20097;-57
2021/10/14 07:03:41;;;;;;;13.18;10.15;;;;;;;;;;6142882;23;20112;-57
2021/10/14 07:06:06;;;;;;;15.73;9.20;;;;;;;;;;6146154;23;20013;-57
2021/10/14 07:08:32;;;;;;;16.98;11.52;;;;;;;;;;6148131;23;20169;-57
2021/10/14 07:10:57;;;;;;;21.67;13.45;;;;;;;;;;6146939;23;20013;-56
2021/10/14 07:13:23;;;;;;;20.60;13.30;;;;;;;;;;6147716;23;20006;-57
2021/10/14 07:15:50;;;;;;;13.50;10.10;;;;;;;;;;6147648;23;20036;-57
2021/10/14 07:18:15;;;;;;;16.27;10.50;;;;;;;;;;6145675;23;20025;-57
2021/10/14 07:20:41;;;;;;;14.00;9.23;;;;;;;;;;6147891;23;20009;-57
2021/10/14 07:23:14;;;;;;;12.43;8.40;;;;;;;;;;6147101;23;20012;-57
2021/10/14 07:25:40;;;;;;;12.23;9.63;;;;;;;;;;6147536;23;20324;-58
2021/10/14 07:28:07;;;;;;;16.40;10.40;;;;;;;;;;6146239;23;20748;-57
2021/10/14 07:30:34;;;;;;;14.07;8.50;;;;;;;;;;6145323;23;19998;-56
2021/10/14 07:33:06;;;;;;;;;;;;;;;;;;6148906;23;20012;-57
2021/10/14 07:35:32;;;;;;;16.20;11.00;;;;;;;;;;6142343;23;19909;-57
2021/10/14 07:37:59;;;;;;;11.23;7.25;;;;;;;;;;6144923;23;20067;-57
2021/10/14 07:40:25;;;;;;;11.95;7.90;;;;;;;;;;6143571;23;20016;-57
2021/10/14 07:42:50;;;;;;;14.43;10.05;;;;;;;;;;6119515;23;19998;-57
2021/10/14 07:45:15;;;;;;;14.52;9.52;;;;;;;;;;6121595;23;20005;-57
2021/10/14 07:47:41;;;;;;;24.45;15.25;;;;;;;;;;6146451;23;20063;-57
2021/10/14 07:50:06;;;;;;;15.57;9.90;;;;;;;;;;6121985;23;20006;-57
2021/10/14 07:52:32;;;;;;;13.32;9.23;;;;;;;;;;6146897;23;20475;-57
2021/10/14 07:54:57;;;;;;;12.63;6.97;;;;;;;;;;6120835;23;20016;-57
2021/10/14 07:57:22;;;;;;;18.33;10.60;;;;;;;;;;6145749;23;20013;-57
2021/10/14 07:59:48;;;;;;;9.02;6.00;;;;;;;;;;6146397;23;20022;-57
2021/10/14 08:02:13;;;;;;;13.88;8.90;;;;;;;;;;6146403;23;20088;-57
2021/10/14 08:04:39;;;;;;;10.93;6.72;;;;;;;;;;6146057;23;20084;-58
2021/10/14 08:07:04;;;;;;;12.63;7.65;;;;;;;;;;6147046;23;20013;-57
2021/10/14 08:09:29;;;;;;;8.82;5.97;;;;;;;;;;6144453;23;20535;-57
2021/10/14 08:11:55;;;;;;;9.95;5.80;;;;;;;;;;6143805;23;20442;-57
2021/10/14 08:14:20;;;;;;;12.65;7.53;;;;;;;;;;6147083;23;20014;-57
2021/10/14 08:16:46;;;;;;;9.40;6.32;;;;;;;;;;6147341;23;20583;-57
2021/10/14 08:19:11;;;;;;;14.95;7.65;;;;;;;;;;6119755;23;20767;-57
2021/10/14 08:21:36;;;;;;;8.43;6.13;;;;;;;;;;6147725;23;20005;-57
2021/10/14 08:24:01;;;;;;;9.98;6.90;;;;;;;;;;6145563;23;20120;-57
2021/10/14 08:26:27;;;;;;;12.60;7.15;;;;;;;;;;6121559;23;20391;-57
2021/10/14 08:28:52;;;;;;;13.25;8.63;;;;;;;;;;6146281;23;20031;-57
2021/10/14 08:31:18;;;;;;;11.48;7.25;;;;;;;;;;6145674;23;20004;-57
2021/10/14 08:33:43;;;;;;;9.48;5.65;;;;;;;;;;6120416;23;20340;-57
2021/10/14 08:36:10;;;;;;;8.82;5.63;;;;;;;;;;6146527;23;20013;-57
2021/10/14 08:38:36;;;;;;;8.73;6.25;;;;;;;;;;6146983;23;20008;-57
2021/10/14 08:41:01;;;;;;;11.25;6.15;;;;;;;;;;6147858;23;20001;-58
2021/10/14 08:43:34;;;;;;;11.60;7.05;;;;;;;;;;6146166;23;20088;-58
2021/10/14 08:46:02;;;;;;;9.98;6.75;;;;;;;;;;6146783;23;20005;-57
2021/10/14 08:48:28;;;;;;;9.65;6.15;;;;;;;;;;6144952;23;20084;-58
2021/10/14 08:50:54;;;;;;;13.88;6.60;;;;;;;;;;6147586;23;20502;-58
2021/10/14 08:53:19;;;;;;;11.10;6.22;;;;;;;;;;6121637;23;20036;-58
2021/10/14 08:55:44;;;;;;;10.45;5.85;;;;;;;;;;6147475;23;20401;-59
2021/10/14 08:58:13;;;;;;;9.43;5.93;;;;;;;;;;6146296;23;20288;-58
2021/10/14 09:00:40;;;;;;;9.48;6.00;;;;;;;;;;6145596;23;20022;-58
2021/10/14 09:03:48;;;;;;;10.23;5.70;;;;;;;;;;6146918;23;20450;-58
2021/10/14 09:06:15;;;;;;;8.18;5.10;;;;;;;;;;6061922;23;20006;-58
2021/10/14 09:08:47;;;;;;;11.52;5.70;;;;;;;;;;6145984;23;20009;-58
2021/10/14 09:11:22;;;;;;;10.45;5.40;;;;;;;;;;6147092;23;20360;-57
2021/10/14 09:13:53;;;;;;;8.32;5.00;;;;;;;;;;6147118;23;20009;-58
2021/10/14 09:16:38;;;;;;;10.70;5.70;;;;;;;;;;6149119;23;20005;-59
2021/10/14 09:19:11;;;;;;;9.43;5.43;;;;;;;;;;6146352;23;20064;-58
2021/10/14 09:21:37;;;;;;;10.20;5.70;;;;;;;;;;6143030;23;20421;-58
2021/10/14 09:24:29;;;;;;;7.63;5.13;;;;;;;;;;6147379;23;20005;-58
2021/10/14 09:26:56;;;;;;;7.57;5.07;;;;;;;;;;6148286;23;20025;-58
2021/10/14 09:29:25;;;;;;;7.72;5.10;;;;;;;;;;6121439;23;20091;-58
2021/10/14 09:31:57;;;;;;;7.18;5.03;;;;;;;;;;6146725;23;20494;-57
2021/10/14 09:34:33;;;;;;;8.48;5.30;;;;;;;;;;6147634;23;20017;-58
2021/10/14 09:37:01;;;;;;;8.75;5.10;;;;;;;;;;6147504;23;20458;-58
2021/10/14 09:39:27;;;;;;;9.35;5.57;;;;;;;;;;6146860;23;20013;-57
2021/10/14 09:41:53;;;;;;;8.45;4.97;;;;;;;;;;6122429;23;20085;-58
2021/10/14 09:44:20;;;;;;;9.93;5.30;;;;;;;;;;6147194;23;20020;-58
2021/10/14 09:46:51;;;;;;;9.27;5.13;;;;;;;;;;6122150;23;20443;-59
2021/10/14 09:49:32;;;;;;;9.43;4.63;;;;;;;;;;6145595;23;20009;-57
2021/10/14 09:52:00;;;;;;;7.78;5.15;;;;;;;;;;6148906;23;20001;-58
2021/10/14 09:54:32;;;;;;;8.35;4.72;;;;;;;;;;6122354;23;20012;-58
2021/10/14 09:56:58;;;;;;;8.23;4.85;;;;;;;;;;6148882;23;20013;-59
2021/10/14 09:59:24;;;;;;;11.35;5.13;;;;;;;;;;6148107;23;20037;-59
2021/10/14 10:01:52;;;;;;;10.38;5.50;;;;;;;;;;6146394;23;20011;-59
2021/10/14 10:04:25;;;;;;;9.63;5.18;;;;;;;;;;6148655;23;20060;-58
2021/10/14 10:06:55;;;;;;;6.95;5.00;;;;;;;;;;6149319;23;20005;-58
2021/10/14 10:09:23;;;;;;;8.43;4.57;;;;;;;;;;6147570;23;20387;-58
2021/10/14 10:11:53;;;;;;;6.22;4.40;;;;;;;;;;6148384;23;20001;-58
2021/10/14 10:14:24;;;;;;;8.15;4.82;;;;;;;;;;6148545;23;20009;-58
2021/10/14 10:16:53;;;;;;;6.22;4.70;;;;;;;;;;6148002;23;20009;-58
2021/10/14 10:19:38;;;;;;;9.23;5.25;;;;;;;;;;6145235;23;20005;-58
2021/10/14 10:22:04;;;;;;;8.88;5.63;;;;;;;;;;6146338;23;20713;-58
2021/10/14 10:24:31;;;;;;;9.45;4.93;;;;;;;;;;6146679;23;20040;-58
2021/10/14 10:26:58;;;;;;;9.95;5.85;;;;;;;;;;6147430;23;20002;-58
2021/10/14 10:29:24;;;;;;;11.40;5.13;;;;;;;;;;6147326;23;20009;-58
2021/10/14 10:31:49;;;;;;;8.70;5.68;;;;;;;;;;6147441;23;20283;-58
2021/10/14 10:37:31;;;;;;;7.40;4.53;;;;;;;;;;6146330;23;20013;-58
2021/10/14 10:40:09;;;;;;;7.30;4.40;;;;;;;;;;6146011;23;20009;-58
2021/10/14 10:42:38;;;;;;;5.85;3.72;;;;;;;;;;6146843;23;20002;-58
2021/10/14 10:45:11;;;;;;;8.80;4.97;;;;;;;;;;6123825;23;20005;-57
2021/10/14 10:47:56;;;;;;;9.05;4.57;;;;;;;;;;6146259;23;20029;-58
2021/10/14 10:50:28;;;;;;;10.40;5.57;;;;;;;;;;6148620;23;20101;-58
2021/10/14 10:53:11;;;;;;;7.00;4.57;;;;;;;;;;6145266;23;20087;-58
2021/10/14 10:55:37;;;;;;;10.15;6.35;;;;;;;;;;6148366;23;20012;-58
2021/10/14 10:58:06;;;;;;;8.52;4.97;;;;;;;;;;6148204;23;20084;-57
2021/10/14 11:00:31;;;;;;;8.10;4.28;;;;;;;;;;6146212;23;20021;-58
2021/10/14 11:03:14;;;;;;;9.57;4.82;;;;;;;;;;6146452;23;20009;-58
2021/10/14 11:05:45;;;;;;;10.00;4.70;;;;;;;;;;6147422;23;20010;-59
2021/10/14 11:08:17;;;;;;;7.97;3.90;;;;;;;;;;6148216;23;20006;-57
2021/10/14 11:10:57;;;;;;;6.82;4.28;;;;;;;;;;6146450;23;20056;-58
2021/10/14 11:13:27;;;;;;;7.53;3.72;;;;;;;;;;6147672;23;20036;-57
2021/10/14 11:15:54;;;;;;;6.85;3.60;;;;;;;;;;6148316;23;20037;-59
2021/10/14 11:18:25;;;;;;;;;;;;;;;;;;6147924;23;20016;-58
2021/10/14 11:20:52;;;;;;;7.78;4.70;;;;;;;;;;6147263;23;19919;-57
2021/10/14 11:23:19;;;;;;;6.80;3.42;;;;;;;;;;6148154;23;20080;-57
2021/10/14 11:25:58;;;;;;;6.78;3.60;;;;;;;;;;6144722;23;20452;-57
2021/10/14 11:28:23;;;;;;;7.82;3.53;;;;;;;;;;6146906;23;20012;-58
2021/10/14 11:30:49;;;;;;;4.28;3.20;;;;;;;;;;6121528;23;20001;-57
2021/10/14 11:33:34;;;;;;;10.55;5.35;;;;;;;;;;6145117;23;20029;-58
2021/10/14 11:36:06;;;;;;;7.28;5.00;;;;;;;;;;6146503;23;20017;-58
2021/10/14 11:38:33;;;;;;;7.15;4.28;;;;;;;;;;6146718;23;20477;-58
2021/10/14 11:41:00;;;;;;;5.93;3.83;;;;;;;;;;6145431;23;20089;-58
2021/10/14 11:43:27;;;;;;;7.15;5.13;;;;;;;;;;6145690;23;20065;-58
2021/10/14 11:45:56;;;;;;;9.05;4.00;;;;;;;;;;6147897;23;20711;-58
2021/10/14 11:48:34;;;;;;;9.43;6.63;;;;;;;;;;6146442;23;20009;-58
2021/10/14 11:51:07;;;;;;;11.52;4.25;;;;;;;;;;6147860;23;20094;-58
2021/10/14 11:53:34;;;;;;;7.10;3.17;;;;;;;;;;6120872;23;20063;-58
2021/10/14 11:56:03;;;;;;;7.32;3.35;;;;;;;;;;6147909;23;20005;-58
2021/10/14 11:58:28;;;;;;;8.10;3.25;;;;;;;;;;6142506;23;20005;-58
2021/10/14 12:00:56;;;;;;;9.07;3.80;;;;;;;;;;6144209;23;20014;-58
2021/10/14 12:03:22;;;;;;;7.70;3.63;;;;;;;;;;6144514;23;20033;-57
2021/10/14 12:05:48;;;;;;;4.35;3.00;;;;;;;;;;6145989;23;20027;-58
2021/10/14 12:08:16;;;;;;;6.40;3.30;;;;;;;;;;6146916;23;20502;-58
2021/10/14 12:10:46;;;;;;;8.75;3.58;;;;;;;;;;6147781;23;20088;-58
2021/10/14 12:13:14;;;;;;;7.50;3.58;;;;;;;;;;6145235;23;20009;-57
2021/10/14 12:15:40;;;;;;;6.65;3.05;;;;;;;;;;6147164;23;20010;-58
2021/10/14 12:18:06;;;;;;;6.68;2.92;;;;;;;;;;6146171;23;20015;-58
2021/10/14 12:20:32;;;;;;;6.55;3.22;;;;;;;;;;6145880;23;20009;-58
2021/10/14 12:23:04;;;;;;;5.47;3.25;;;;;;;;;;6145375;23;20009;-58
2021/10/14 12:25:34;;;;;;;6.15;3.22;;;;;;;;;;6146901;23;20036;-58
2021/10/14 12:28:00;;;;;;;6.22;3.28;;;;;;;;;;6146478;23;20040;-58
2021/10/14 12:30:30;;;;;;;6.82;3.33;;;;;;;;;;6143613;23;20382;-58
2021/10/14 12:33:17;;;;;;;6.95;4.47;;;;;;;;;;6144983;23;20009;-58
2021/10/14 12:35:50;;;;;;;5.53;3.15;;;;;;;;;;6146020;23;20005;-58
2021/10/14 12:38:18;;;;;;;6.43;3.58;;;;;;;;;;6145428;23;20002;-58
2021/10/14 12:40:59;;;;;;;;;;;;;;;;;;6146561;23;20547;-58
2021/10/14 12:43:29;;;;;;;6.60;3.03;;;;;;;;;;6146207;23;19905;-58
2021/10/14 12:46:06;;;;;;;7.50;3.85;;;;;;;;;;6146126;23;20009;-58
2021/10/14 12:53:49;;;;;;;5.18;2.45;;;;;;;;;;6145587;23;20056;-58
2021/10/14 12:56:17;;;;;;;3.67;2.30;;;;;;;;;;6147583;23;20494;-59
2021/10/14 12:58:43;;;;;;;4.72;2.90;;;;;;;;;;6146844;23;20012;-58
2021/10/14 13:01:18;;;;;;;33.33;15.20;;;;;;;;;;6143590;23;20017;-58
2021/10/14 13:03:46;;;;;;;19.63;9.30;;;;;;;;;;6144446;23;20001;-60
2021/10/14 13:06:13;;;;;;;5.25;2.55;;;;;;;;;;6119022;23;20407;-59
2021/10/14 13:08:44;;;;;;;13.43;6.40;;;;;;;;;;6145215;23;20010;-60
2021/10/14 13:11:11;;;;;;;4.97;2.90;;;;;;;;;;6145872;23;20059;-59
2021/10/14 13:13:38;;;;;;;6.38;3.78;;;;;;;;;;6145550;23;20403;-60
2021/10/14 13:16:05;;;;;;;17.83;9.55;;;;;;;;;;6145138;23;20437;-58
2021/10/14 13:18:30;;;;;;;13.35;7.00;;;;;;;;;;6145938;23;20013;-59
2021/10/14 13:21:02;;;;;;;3.95;2.70;;;;;;;;;;6146602;23;20010;-59
2021/10/14 13:23:28;;;;;;;5.13;2.67;;;;;;;;;;6145270;23;20467;-58
2021/10/14 13:25:55;;;;;;;9.38;4.28;;;;;;;;;;6147121;23;20095;-59
2021/10/14 13:28:24;;;;;;;11.75;6.70;;;;;;;;;;6146835;23;20005;-59
2021/10/14 13:30:50;;;;;;;8.27;4.68;;;;;;;;;;6147837;23;20002;-59
2021/10/14 13:33:17;;;;;;;9.55;4.85;;;;;;;;;;6144180;23;20013;-59
2021/10/14 13:35:45;;;;;;;6.18;3.75;;;;;;;;;;6144717;23;20009;-59
2021/10/14 13:38:11;;;;;;;5.20;3.40;;;;;;;;;;6146257;23;20092;-61
2021/10/14 13:40:42;;;;;;;4.68;3.08;;;;;;;;;;6145050;23;20005;-59
2021/10/14 13:43:13;;;;;;;5.88;3.22;;;;;;;;;;6142519;23;20005;-60
2021/10/14 13:45:38;;;;;;;8.35;2.92;;;;;;;;;;6141000;23;20180;-59
2021/10/14 13:48:04;;;;;;;3.78;2.25;;;;;;;;;;6142827;23;20006;-59
2021/10/14 13:50:29;;;;;;;5.18;2.40;;;;;;;;;;6147656;23;20677;-59
2021/10/14 13:52:55;;;;;;;7.43;2.58;;;;;;;;;;6119124;23;20008;-58
2021/10/14 13:55:20;;;;;;;6.50;2.65;;;;;;;;;;6147258;23;20071;-59
2021/10/14 13:57:46;;;;;;;4.15;1.90;;;;;;;;;;6144367;23;20139;-60
2021/10/14 14:00:11;;;;;;;6.50;2.33;;;;;;;;;;6146468;23;20109;-59
2021/10/14 14:02:37;;;;;;;3.53;2.10;;;;;;;;;;6144962;23;20411;-60
2021/10/14 14:05:05;;;;;;;4.60;2.10;;;;;;;;;;6148468;23;20827;-59
2021/10/14 14:07:31;;;;;;;3.78;2.22;;;;;;;;;;6143423;23;20024;-59
2021/10/14 14:09:57;;;;;;;5.97;2.30;;;;;;;;;;6147244;23;20348;-59
2021/10/14 14:12:22;;;;;;;4.60;2.30;;;;;;;;;;6143633;23;20006;-59
2021/10/14 14:14:47;;;;;;;4.90;2.10;;;;;;;;;;6144584;23;20436;-59
2021/10/14 14:17:13;;;;;;;4.63;2.28;;;;;;;;;;6142244;23;20332;-58
2021/10/14 14:19:38;;;;;;;6.03;2.42;;;;;;;;;;6147894;23;20016;-59
2021/10/14 14:22:04;;;;;;;4.15;2.17;;;;;;;;;;6143171;23;20028;-60
2021/10/14 14:24:30;;;;;;;5.32;3.00;;;;;;;;;;6140150;23;20562;-59
2021/10/14 14:26:55;;;;;;;9.60;4.93;;;;;;;;;;6140976;23;20005;-59
2021/10/14 14:29:21;;;;;;;6.95;3.30;;;;;;;;;;6147014;23;20092;-60
2021/10/14 14:31:46;;;;;;;29.80;14.68;;;;;;;;;;6122418;23;19997;-59
2021/10/14 14:34:12;;;;;;;17.02;9.68;;;;;;;;;;6145882;23;20013;-59
2021/10/14 14:36:37;;;;;;;9.98;4.97;;;;;;;;;;6145189;23;20017;-59
2021/10/14 14:39:02;;;;;;;7.28;3.83;;;;;;;;;;6146352;23;20010;-58
2021/10/14 14:41:28;;;;;;;6.70;3.00;;;;;;;;;;6145961;23;20067;-59
2021/10/14 14:43:53;;;;;;;11.25;6.07;;;;;;;;;;6146669;23;20721;-58
2021/10/14 14:46:21;;;;;;;32.90;14.77;;;;;;;;;;6148029;23;20006;-59